createdAt,value
2022-09-20T00:02:01.398Z,99899.84
2022-09-20T00:06:03.574Z,99895.50
2022-09-20T00:10:05.173Z,99903.97
2022-09-20T00:14:08.872Z,99893.63
2022-09-20T00:18:11.453Z,99895.31
2022-09-20T00:22:12.813Z,99885.66
2022-09-20T00:26:14.124Z,99888.97
2022-09-20T00:30:15.459Z,99882.00
2022-09-20T00:34:35.748Z,99883.56
2022-09-20T00:38:37.077Z,99892.91
2022-09-20T00:42:39.080Z,99894.44
2022-09-20T00:46:42.298Z,99898.72
2022-09-20T00:50:52.686Z,99895.25
2022-09-20T00:54:54.121Z,99893.44
2022-09-20T00:59:01.961Z,99895.84
2022-09-20T01:03:06.335Z,99893.19
2022-09-20T01:07:08.337Z,99894.94
2022-09-20T01:11:09.785Z,99896.63
2022-09-20T01:15:11.493Z,99893.09
2022-09-20T01:19:38.244Z,99895.50
2022-09-20T01:23:48.741Z,99897.03
2022-09-20T01:27:51.802Z,99901.28
2022-09-20T01:31:54.925Z,99903.75
2022-09-20T01:35:58.668Z,99900.25
2022-09-20T01:40:10.802Z,99890.78
2022-09-20T01:44:22.922Z,99893.31
2022-09-20T01:48:29.852Z,99882.13
2022-09-20T01:52:37.465Z,99885.34
2022-09-20T01:56:41.684Z,99884.47
2022-09-20T02:00:52.252Z,99880.97
2022-09-20T02:04:59.829Z,99879.97
2022-09-20T02:09:01.108Z,99886.72
2022-09-20T02:13:21.092Z,99884.88
2022-09-20T02:17:48.748Z,99894.34
2022-09-20T02:22:04.420Z,99907.19
2022-09-20T02:26:05.664Z,99901.16
2022-09-20T02:30:13.335Z,99906.34
2022-09-20T02:34:34.055Z,99897.78
2022-09-20T02:38:50.669Z,99901.47
2022-09-20T02:43:02.060Z,99900.06
2022-09-20T02:47:19.165Z,99909.75
2022-09-20T02:51:26.181Z,99904.63
2022-09-20T02:55:36.598Z,99901.94
2022-09-20T02:59:47.054Z,99903.66
2022-09-20T03:04:07.083Z,99902.16
2022-09-20T03:08:25.301Z,99906.66
2022-09-20T03:12:46.849Z,99909.47
2022-09-20T03:17:07.101Z,99911.31
2022-09-20T03:21:29.344Z,99907.00
2022-09-20T03:25:34.257Z,99915.72
2022-09-20T03:29:55.694Z,99913.28
2022-09-20T03:34:16.209Z,99912.53
2022-09-20T03:38:20.913Z,99911.72
2022-09-20T03:42:26.832Z,99909.28
2022-09-20T03:46:35.364Z,99908.47
2022-09-20T03:50:44.940Z,99905.03
2022-09-20T03:54:59.556Z,99894.72
2022-09-20T03:59:08.045Z,99897.22
2022-09-20T04:03:15.539Z,99902.38
2022-09-20T04:07:30.198Z,99902.41
2022-09-20T04:11:35.541Z,99913.66
2022-09-20T04:15:37.481Z,99912.97
2022-09-20T04:19:53.320Z,99914.84
2022-09-20T04:24:06.913Z,99912.28
2022-09-20T04:28:19.283Z,99908.16
2022-09-20T04:32:42.214Z,99912.41
2022-09-20T04:36:57.504Z,99920.25
2022-09-20T04:41:20.324Z,99916.78
2022-09-20T04:45:40.509Z,99919.44
2022-09-20T04:49:51.319Z,99930.72
2022-09-20T04:54:25.411Z,99921.38
2022-09-20T04:58:53.351Z,99935.84
2022-09-20T05:03:29.509Z,99933.28
2022-09-20T05:07:30.793Z,99940.31
2022-09-20T05:11:47.404Z,99949.03
2022-09-20T05:15:54.619Z,99946.63
2022-09-20T05:20:11.972Z,99947.50
2022-09-20T05:24:33.620Z,99961.34
2022-09-20T05:28:49.539Z,99954.56
2022-09-20T05:33:03.234Z,99949.47
2022-09-20T05:37:18.317Z,99952.09
2022-09-20T05:41:31.891Z,99961.63
2022-09-20T05:45:47.398Z,99950.59
2022-09-20T05:49:55.089Z,99951.53
2022-09-20T05:54:30.533Z,99957.59
2022-09-20T05:58:58.178Z,99955.03
2022-09-20T06:03:16.291Z,99954.31
2022-09-20T06:07:17.689Z,99961.34
2022-09-20T06:11:44.537Z,99964.97
2022-09-20T06:15:57.539Z,99961.59
2022-09-20T06:19:58.849Z,99964.19
2022-09-20T06:24:15.604Z,99965.22
2022-09-20T06:28:21.618Z,99966.19
2022-09-20T06:32:23.024Z,99965.31
2022-09-20T06:36:59.960Z,99967.97
2022-09-20T06:41:26.389Z,99972.44
2022-09-20T06:45:27.770Z,99971.72
2022-09-20T06:49:29.348Z,99971.00
2022-09-20T06:53:32.620Z,99972.78
2022-09-20T06:57:36.801Z,99947.72
2022-09-20T07:01:38.663Z,99964.16
2022-09-20T07:05:40.242Z,99963.44
2022-09-20T07:09:41.505Z,99980.88
2022-09-20T07:13:43.906Z,99980.16
2022-09-20T07:17:45.473Z,99978.56
2022-09-20T07:21:46.906Z,99970.81
2022-09-20T07:25:54.301Z,99988.28
2022-09-20T07:29:56.321Z,99975.41
2022-09-20T07:34:04.312Z,99985.91
2022-09-20T07:38:19.368Z,99985.13
2022-09-20T07:42:20.715Z,99993.84
2022-09-20T07:46:28.304Z,99987.84
2022-09-20T07:50:29.726Z,99994.88
2022-09-20T07:54:31.391Z,99998.38
2022-09-20T07:58:34.189Z,99993.22
2022-09-20T08:02:36.029Z,99998.41
2022-09-20T08:06:38.236Z,100001.84
2022-09-20T08:10:41.061Z,99996.56
2022-09-20T08:14:42.291Z,99995.63
2022-09-20T08:18:57.544Z,99999.88
2022-09-20T08:23:22.621Z,99997.81
2022-09-20T08:27:24.690Z,100009.78
2022-09-20T08:31:27.625Z,100005.94
2022-09-20T08:35:29.651Z,100001.88
2022-09-20T08:43:55.668Z,100007.81
2022-09-20T08:48:06.375Z,100007.25
2022-09-20T08:52:14.879Z,100009.69
2022-09-20T08:56:23.370Z,100015.50
2022-09-20T09:00:34.321Z,100009.16
2022-09-20T09:04:36.439Z,100008.03
2022-09-20T09:08:38.752Z,100019.31
2022-09-20T09:12:49.825Z,100017.16
2022-09-20T09:16:51.395Z,100010.75
2022-09-20T09:20:52.944Z,100013.09
2022-09-20T09:25:13.647Z,100015.00
2022-09-20T09:29:14.888Z,100009.81
2022-09-20T09:33:22.506Z,100006.44
2022-09-20T09:37:35.388Z,100003.00
2022-09-20T09:41:36.868Z,100001.84
2022-09-20T09:45:38.952Z,99997.50
2022-09-20T09:49:59.716Z,99995.19
2022-09-20T09:54:09.449Z,99994.81
2022-09-20T09:58:23.949Z,99990.00
2022-09-20T10:02:26.241Z,99989.50
2022-09-20T10:06:41.467Z,99995.72
2022-09-20T10:11:01.818Z,99992.31
2022-09-20T10:15:16.019Z,99983.50
2022-09-20T10:19:22.511Z,99994.59
2022-09-20T10:24:01.379Z,99989.94
2022-09-20T10:27:59.369Z,99994.03
2022-09-20T10:32:06.554Z,99997.44
2022-09-20T10:36:13.859Z,99991.56
2022-09-20T10:40:15.394Z,99989.16
2022-09-20T10:44:19.870Z,99989.13
2022-09-20T10:48:37.865Z,99982.72
2022-09-20T10:52:51.833Z,99985.81
2022-09-20T10:56:59.076Z,99989.06
2022-09-20T11:01:32.657Z,99993.31
2022-09-20T11:05:52.650Z,99989.72
2022-09-20T11:09:58.484Z,99988.59
2022-09-20T11:14:03.467Z,99983.31
2022-09-20T11:18:04.981Z,99981.56
2022-09-20T11:22:09.031Z,99982.09
2022-09-20T11:26:19.629Z,99990.41
2022-09-20T11:30:22.000Z,99982.78
2022-09-20T11:34:28.093Z,99981.00
2022-09-20T11:38:43.764Z,99973.03
2022-09-20T11:42:46.066Z,99980.78
2022-09-20T11:47:02.856Z,99979.50
2022-09-20T11:51:15.389Z,99978.13
2022-09-20T11:55:37.127Z,99966.84
2022-09-20T11:59:42.452Z,99971.38
2022-09-20T12:03:46.234Z,99969.59
2022-09-20T12:07:53.429Z,99969.50
2022-09-20T12:12:01.581Z,99972.09
2022-09-20T12:16:19.530Z,99969.50
2022-09-20T12:20:32.913Z,99978.47
2022-09-20T12:24:35.034Z,99975.31
2022-09-20T12:28:47.516Z,99974.75
2022-09-20T12:32:51.901Z,99982.06
2022-09-20T12:36:53.392Z,99978.84
2022-09-20T12:41:06.144Z,99981.81
2022-09-20T12:45:17.552Z,99981.19
2022-09-20T12:49:41.359Z,99982.41
2022-09-20T12:53:42.653Z,99984.41
2022-09-20T12:57:43.972Z,99982.00
2022-09-20T13:01:46.370Z,99970.84
2022-09-20T13:05:52.527Z,99969.13
2022-09-20T13:09:54.210Z,99969.91
2022-09-20T13:14:00.056Z,99970.59
2022-09-20T13:18:01.969Z,99968.66
2022-09-20T13:22:05.523Z,99971.97
2022-09-20T13:26:09.490Z,99967.09
2022-09-20T13:30:20.727Z,99972.09
2022-09-20T13:34:25.400Z,99974.78
2022-09-20T13:38:31.128Z,99969.59
2022-09-20T13:42:36.789Z,99975.00
2022-09-20T13:46:43.248Z,99966.41
2022-09-20T13:50:48.061Z,99957.81
2022-09-20T13:54:51.500Z,99951.09
2022-09-20T13:58:53.387Z,99957.28
2022-09-20T14:03:01.557Z,99952.97
2022-09-20T14:07:06.297Z,99948.56
2022-09-20T14:11:22.344Z,99950.41
2022-09-20T14:15:30.939Z,99944.31
2022-09-20T14:19:34.946Z,99940.72
2022-09-20T14:23:51.564Z,99934.53
2022-09-20T14:28:06.556Z,99940.66
2022-09-20T14:32:14.872Z,99939.03
2022-09-20T14:36:18.568Z,99943.44
2022-09-20T14:40:33.866Z,99935.16
2022-09-20T14:44:36.872Z,99933.56
2022-09-20T14:48:41.233Z,99929.56
2022-09-20T14:52:44.626Z,99933.47
2022-09-20T14:56:52.882Z,99924.44
2022-09-20T15:01:20.576Z,99935.88
2022-09-20T15:05:25.870Z,99930.56
2022-09-20T15:09:27.496Z,99929.34
2022-09-20T15:13:28.800Z,99928.84
2022-09-20T15:17:30.049Z,99932.78
2022-09-20T15:21:32.134Z,99927.13
2022-09-20T15:25:33.797Z,99932.19
2022-09-20T15:29:35.333Z,99926.53
2022-09-20T15:33:40.407Z,99927.75
2022-09-20T15:37:42.580Z,99931.53
2022-09-20T15:41:46.021Z,99923.03
2022-09-20T15:45:50.045Z,99927.66
2022-09-20T15:49:53.625Z,99933.13
2022-09-20T15:54:00.031Z,99926.38
2022-09-20T15:58:01.447Z,99930.00
2022-09-20T16:02:02.928Z,99933.66
2022-09-20T16:06:05.869Z,99944.19
2022-09-20T16:10:07.447Z,99938.13
2022-09-20T16:14:08.913Z,99939.09
2022-09-20T16:18:29.037Z,99947.03
2022-09-20T16:22:40.588Z,99941.84
2022-09-20T16:26:42.056Z,99948.94
2022-09-20T16:30:49.731Z,99951.63
2022-09-20T16:34:54.785Z,99951.69
2022-09-20T16:39:03.311Z,99949.25
2022-09-20T16:43:06.112Z,99954.63
2022-09-20T16:47:08.779Z,99964.25
2022-09-20T16:51:10.036Z,99963.50
2022-09-20T16:55:19.560Z,99967.09
2022-09-20T16:59:27.902Z,99962.03
2022-09-20T17:03:35.599Z,99968.28
2022-09-20T17:07:37.109Z,99976.22
2022-09-20T17:11:39.896Z,99973.75
2022-09-20T17:15:41.255Z,99977.34
2022-09-20T17:19:42.856Z,99974.94
2022-09-20T17:23:50.071Z,99971.53
2022-09-20T17:27:52.192Z,99975.06
2022-09-20T17:32:00.754Z,99982.03
2022-09-20T17:36:03.720Z,99983.88
2022-09-20T17:40:11.655Z,99983.06
2022-09-20T17:44:13.424Z,99991.81
2022-09-20T17:48:14.796Z,99994.44
2022-09-20T17:52:18.001Z,99999.69
2022-09-20T17:56:21.396Z,99997.97
2022-09-20T18:00:22.693Z,100009.31
2022-09-20T18:04:25.177Z,100001.53
2022-09-20T18:08:32.712Z,100004.19
2022-09-20T18:12:34.173Z,100008.56
2022-09-20T18:16:37.241Z,100012.91
2022-09-20T18:20:45.628Z,100015.53
2022-09-20T18:24:46.872Z,100018.13
2022-09-20T18:28:56.786Z,100021.63
2022-09-20T18:33:05.316Z,100026.88
2022-09-20T18:37:13.767Z,100033.88
2022-09-20T18:41:16.484Z,100034.75
2022-09-20T18:45:19.216Z,100035.63
2022-09-20T18:49:21.581Z,100037.41
2022-09-20T18:53:24.768Z,100045.22
2022-09-20T18:57:26.288Z,100047.88
2022-09-20T19:01:34.019Z,100053.06
2022-09-20T19:05:47.764Z,100061.75
2022-09-20T19:09:51.877Z,100066.09
2022-09-20T19:13:57.237Z,100071.31
2022-09-20T19:18:23.943Z,100070.41
2022-09-20T19:23:11.932Z,100078.25
2022-09-20T19:27:40.706Z,100079.97
2022-09-20T19:32:08.656Z,100078.25
2022-09-20T19:37:02.853Z,100083.44
2022-09-20T19:41:42.713Z,100088.63
2022-09-20T19:46:16.747Z,100081.72
2022-09-20T19:50:46.184Z,100085.19
2022-09-20T19:55:16.831Z,100087.81
2022-09-20T19:59:39.160Z,100088.66
2022-09-20T20:04:01.005Z,100088.63
2022-09-20T20:08:28.693Z,100092.09
2022-09-20T20:12:40.781Z,100090.31
2022-09-20T20:16:42.076Z,100097.22
2022-09-20T20:20:56.761Z,100091.13
2022-09-20T20:24:58.160Z,100096.34
2022-09-20T20:29:00.282Z,100102.41
2022-09-20T20:33:04.400Z,100093.69
2022-09-20T20:37:19.246Z,100097.16
2022-09-20T20:41:27.716Z,100104.06
2022-09-20T20:45:30.517Z,100101.41
2022-09-20T20:49:32.018Z,100096.19
2022-09-20T20:53:34.340Z,100101.31
2022-09-20T20:57:36.000Z,100112.50
2022-09-20T21:01:44.755Z,100105.53
2022-09-20T21:05:53.616Z,100114.97
2022-09-20T21:09:54.916Z,100109.69
2022-09-20T21:13:57.596Z,100106.13
2022-09-20T21:17:58.813Z,100114.69
2022-09-20T21:22:00.677Z,100118.97
2022-09-20T21:26:09.229Z,100127.53
2022-09-20T21:30:11.412Z,100127.34
2022-09-20T21:34:13.339Z,100125.53
2022-09-20T21:38:21.020Z,100132.34
2022-09-20T21:42:22.396Z,100140.06
2022-09-20T21:46:28.183Z,100140.88
2022-09-20T21:50:29.488Z,100140.78
2022-09-20T21:54:30.784Z,100148.47
2022-09-20T21:58:32.348Z,100148.31
2022-09-20T22:02:35.130Z,100147.31
2022-09-20T22:06:37.865Z,100150.72
2022-09-20T22:10:39.234Z,100150.63
2022-09-20T22:14:40.749Z,100156.59
2022-09-20T22:18:42.942Z,100149.63
2022-09-20T22:22:44.891Z,100145.19
2022-09-20T22:26:53.746Z,100140.84
2022-09-20T22:30:55.054Z,100145.09
2022-09-20T22:34:57.906Z,100140.84
2022-09-20T22:38:59.177Z,100144.13
2022-09-20T22:43:00.592Z,100147.56
2022-09-20T22:47:08.772Z,100143.25
2022-09-20T22:51:11.705Z,100132.84
2022-09-20T22:55:12.984Z,100147.34
2022-09-20T22:59:14.618Z,100140.44
2022-09-20T23:03:15.942Z,100147.31
2022-09-20T23:07:17.183Z,100147.31
2022-09-20T23:11:18.819Z,100142.06
2022-09-20T23:15:20.164Z,100144.50
2022-09-20T23:19:21.558Z,100142.69
2022-09-20T23:23:23.519Z,100142.53
2022-09-20T23:27:31.804Z,100144.94
2022-09-20T23:31:34.524Z,100138.81
2022-09-20T23:35:41.847Z,100145.59
2022-09-20T23:39:43.185Z,100149.81
2022-09-20T23:43:44.526Z,100149.63
2022-09-20T23:47:47.539Z,100150.34
2022-09-20T23:51:48.836Z,100144.28
2022-09-20T23:55:50.501Z,100149.28
2022-09-20T23:59:52.684Z,100150.00
